Olmsted Township, Ohio
Current Conditions -  °F | °C
As of 4:51 AM on Friday 28 Nov 2014 (Local Time) from KCLE Reporting Station
Overcast Overcast  
Wind Chill: 11°   Ceiling: 3800
Heat Index: 23°   Visibility: 10mi
Dew Point: 12°   Wind: 14mph
Humidity: 63%   Direction: 280°W
Pressure: 30.34"   Gusts: NA
Location:  41.374°N, 81.9211°W
Report Text: KCLE 280951Z 28012KT 10SM OVC038 M05/M11 A3034 RMK AO2 SLP285 T10501111 $
Loading
Personal Weather Stations






























Interactive Weather Map New forecast layout! Learn more

10-Day Weather Forecast

Advertisements
Track Severe Weather on mobile